sensor_id;sensor_type;location;lat;lon;timestamp;pressure;altitude;pressure_sealevel;temperature;humidity
37298;BME280;30517;51.932;4.278;2022-10-16T00:02:21;100849.44;;;15.65;65.17
37298;BME280;30517;51.932;4.278;2022-10-16T00:05:01;100896.75;;;15.89;65.71
37298;BME280;30517;51.932;4.278;2022-10-16T00:07:42;100902.94;;;15.91;65.67
37298;BME280;30517;51.932;4.278;2022-10-16T00:10:23;100887.16;;;15.82;65.97
37298;BME280;30517;51.932;4.278;2022-10-16T00:13:04;100895.03;;;15.88;65.95
37298;BME280;30517;51.932;4.278;2022-10-16T00:15:45;100881.91;;;15.79;65.65
37298;BME280;30517;51.932;4.278;2022-10-16T00:18:27;100890.59;;;15.87;65.78
37298;BME280;30517;51.932;4.278;2022-10-16T00:21:12;100896.75;;;15.89;65.51
37298;BME280;30517;51.932;4.278;2022-10-16T00:23:58;100866.97;;;15.75;65.88
37298;BME280;30517;51.932;4.278;2022-10-16T00:26:40;100877.53;;;15.78;65.82
37298;BME280;30517;51.932;4.278;2022-10-16T00:29:21;100883.50;;;15.88;65.63
37298;BME280;30517;51.932;4.278;2022-10-16T00:32:02;100892.34;;;15.88;65.82
37298;BME280;30517;51.932;4.278;2022-10-16T00:34:43;100854.56;;;15.74;65.73
37298;BME280;30517;51.932;4.278;2022-10-16T00:37:24;100855.53;;;15.72;65.58
37298;BME280;30517;51.932;4.278;2022-10-16T00:40:05;100891.69;;;15.79;65.71
37298;BME280;30517;51.932;4.278;2022-10-16T00:42:46;100879.94;;;15.87;66.07
37298;BME280;30517;51.932;4.278;2022-10-16T00:45:27;100830.91;;;15.60;65.68
37298;BME280;30517;51.932;4.278;2022-10-16T00:48:11;100884.41;;;15.87;65.54
37298;BME280;30517;51.932;4.278;2022-10-16T00:50:54;100889.81;;;15.84;65.52
37298;BME280;30517;51.932;4.278;2022-10-16T00:53:35;100887.16;;;15.82;65.60
37298;BME280;30517;51.932;4.278;2022-10-16T00:56:16;100891.59;;;15.83;65.52
37298;BME280;30517;51.932;4.278;2022-10-16T00:58:58;100899.50;;;15.85;65.77
37298;BME280;30517;51.932;4.278;2022-10-16T01:01:40;100904.03;;;15.83;65.06
37298;BME280;30517;51.932;4.278;2022-10-16T01:04:21;100902.22;;;15.83;65.33
37298;BME280;30517;51.932;4.278;2022-10-16T01:07:27;100892.47;;;15.82;66.13
37298;BME280;30517;51.932;4.278;2022-10-16T01:10:21;100890.78;;;15.80;65.34
37298;BME280;30517;51.932;4.278;2022-10-16T01:13:10;100869.97;;;15.58;65.74
37298;BME280;30517;51.932;4.278;2022-10-16T01:16:00;100882.94;;;15.74;65.55
37298;BME280;30517;51.932;4.278;2022-10-16T01:18:54;100894.28;;;15.82;65.48
37298;BME280;30517;51.932;4.278;2022-10-16T01:21:46;100899.75;;;15.76;65.44
37298;BME280;30517;51.932;4.278;2022-10-16T01:24:44;100889.25;;;15.68;65.26
37298;BME280;30517;51.932;4.278;2022-10-16T01:27:27;100900.59;;;15.76;65.31
37298;BME280;30517;51.932;4.278;2022-10-16T01:30:23;100885.72;;;15.66;65.60
37298;BME280;30517;51.932;4.278;2022-10-16T01:33:13;100904.25;;;15.72;65.08
37298;BME280;30517;51.932;4.278;2022-10-16T01:36:00;100885.03;;;15.58;65.63
37298;BME280;30517;51.932;4.278;2022-10-16T01:38:44;100906.00;;;15.73;65.45
37298;BME280;30517;51.932;4.278;2022-10-16T01:41:32;100895.47;;;15.67;65.13
37298;BME280;30517;51.932;4.278;2022-10-16T01:44:19;100862.28;;;15.44;65.22
37298;BME280;30517;51.932;4.278;2022-10-16T01:47:01;100893.63;;;15.72;65.30
37298;BME280;30517;51.932;4.278;2022-10-16T01:49:43;100913.09;;;15.73;65.36
37298;BME280;30517;51.932;4.278;2022-10-16T01:52:27;100895.34;;;15.75;65.34
37298;BME280;30517;51.932;4.278;2022-10-16T01:55:10;100883.22;;;15.60;65.23
37298;BME280;30517;51.932;4.278;2022-10-16T01:57:52;100910.34;;;15.77;65.39
37298;BME280;30517;51.932;4.278;2022-10-16T02:00:37;100884.91;;;15.64;65.19
37298;BME280;30517;51.932;4.278;2022-10-16T02:03:19;100910.31;;;15.79;65.28
37298;BME280;30517;51.932;4.278;2022-10-16T02:06:00;100893.78;;;15.63;65.04
37298;BME280;30517;51.932;4.278;2022-10-16T02:08:41;100913.03;;;15.76;64.96
37298;BME280;30517;51.932;4.278;2022-10-16T02:11:24;100921.00;;;15.76;65.25
37298;BME280;30517;51.932;4.278;2022-10-16T02:14:06;100894.69;;;15.62;65.22
37298;BME280;30517;51.932;4.278;2022-10-16T02:16:47;100909.50;;;15.75;64.85
37298;BME280;30517;51.932;4.278;2022-10-16T02:19:28;100908.63;;;15.75;65.15
37298;BME280;30517;51.932;4.278;2022-10-16T02:22:36;100906.84;;;15.75;64.89
37298;BME280;30517;51.932;4.278;2022-10-16T02:25:25;100893.84;;;15.60;65.17
37298;BME280;30517;51.932;4.278;2022-10-16T02:28:18;100886.91;;;15.53;64.61
37298;BME280;30517;51.932;4.278;2022-10-16T02:31:03;100887.75;;;15.55;65.05
37298;BME280;30517;51.932;4.278;2022-10-16T02:33:45;100923.75;;;15.71;64.61
37298;BME280;30517;51.932;4.278;2022-10-16T02:36:27;100922.03;;;15.70;64.93
37298;BME280;30517;51.932;4.278;2022-10-16T02:39:08;100919.41;;;15.67;65.01
37298;BME280;30517;51.932;4.278;2022-10-16T02:41:49;100924.72;;;15.68;64.62
37298;BME280;30517;51.932;4.278;2022-10-16T02:44:29;100892.22;;;15.53;64.86
37298;BME280;30517;51.932;4.278;2022-10-16T02:47:10;100926.53;;;15.66;65.03
37298;BME280;30517;51.932;4.278;2022-10-16T02:49:52;100924.72;;;15.68;64.61
37298;BME280;30517;51.932;4.278;2022-10-16T02:52:33;100922.94;;;15.67;64.90
37298;BME280;30517;51.932;4.278;2022-10-16T02:55:14;100917.84;;;15.58;64.90
37298;BME280;30517;51.932;4.278;2022-10-16T02:57:55;100900.31;;;15.48;64.98
37298;BME280;30517;51.932;4.278;2022-10-16T03:00:36;100908.94;;;15.59;64.72
37298;BME280;30517;51.932;4.278;2022-10-16T03:03:17;100893.25;;;15.47;64.96
37298;BME280;30517;51.932;4.278;2022-10-16T03:05:57;100924.91;;;15.58;64.87
37298;BME280;30517;51.932;4.278;2022-10-16T03:08:38;100938.97;;;15.63;64.71
37298;BME280;30517;51.932;4.278;2022-10-16T03:11:19;100903.06;;;15.43;64.90
37298;BME280;30517;51.932;4.278;2022-10-16T03:14:00;100909.31;;;15.42;64.95
37298;BME280;30517;51.932;4.278;2022-10-16T03:16:40;100942.56;;;15.62;65.24
37298;BME280;30517;51.932;4.278;2022-10-16T03:19:21;100942.56;;;15.62;65.04
37298;BME280;30517;51.932;4.278;2022-10-16T03:22:02;100928.69;;;15.47;64.93
37298;BME280;30517;51.932;4.278;2022-10-16T03:24:43;100943.53;;;15.58;65.03
37298;BME280;30517;51.932;4.278;2022-10-16T03:27:24;100933.91;;;15.52;64.78
37298;BME280;30517;51.932;4.278;2022-10-16T03:30:05;100943.63;;;15.53;64.74
37298;BME280;30517;51.932;4.278;2022-10-16T03:32:46;100958.53;;;15.60;65.21
37298;BME280;30517;51.932;4.278;2022-10-16T03:35:27;100962.03;;;15.62;64.46
37298;BME280;30517;51.932;4.278;2022-10-16T03:38:08;100953.41;;;15.51;64.77
37298;BME280;30517;51.932;4.278;2022-10-16T03:40:49;100952.44;;;15.55;64.82
37298;BME280;30517;51.932;4.278;2022-10-16T03:43:29;100952.66;;;15.44;64.68
37298;BME280;30517;51.932;4.278;2022-10-16T03:46:10;100983.41;;;15.58;64.88
37298;BME280;30517;51.932;4.278;2022-10-16T03:48:51;100843.19;;;14.83;64.78
37298;BME280;30517;51.932;4.278;2022-10-16T03:51:32;100968.50;;;15.51;64.88
37298;BME280;30517;51.932;4.278;2022-10-16T03:54:12;100977.31;;;15.53;64.67
37298;BME280;30517;51.932;4.278;2022-10-16T03:56:53;100984.31;;;15.57;64.59
37298;BME280;30517;51.932;4.278;2022-10-16T03:59:34;100974.75;;;15.48;64.42
37298;BME280;30517;51.932;4.278;2022-10-16T04:02:14;100990.56;;;15.56;64.62
37298;BME280;30517;51.932;4.278;2022-10-16T04:04:55;100971.31;;;15.43;64.49
37298;BME280;30517;51.932;4.278;2022-10-16T04:07:36;100950.28;;;15.32;64.96
37298;BME280;30517;51.932;4.278;2022-10-16T04:10:17;100980.00;;;15.51;64.67
37298;BME280;30517;51.932;4.278;2022-10-16T04:12:59;100976.53;;;15.47;64.83
37298;BME280;30517;51.932;4.278;2022-10-16T04:15:39;100995.91;;;15.53;64.77
37298;BME280;30517;51.932;4.278;2022-10-16T04:18:20;100984.69;;;15.38;64.72
37298;BME280;30517;51.932;4.278;2022-10-16T04:21:05;101007.47;;;15.52;64.41
37298;BME280;30517;51.932;4.278;2022-10-16T04:23:46;101018.09;;;15.52;64.72
37298;BME280;30517;51.932;4.278;2022-10-16T04:26:27;100967.34;;;15.20;64.63
37298;BME280;30517;51.932;4.278;2022-10-16T04:29:08;101012.84;;;15.48;64.47
37298;BME280;30517;51.932;4.278;2022-10-16T04:31:48;101015.56;;;15.45;64.78
37298;BME280;30517;51.932;4.278;2022-10-16T04:34:29;101012.13;;;15.39;64.85
37298;BME280;30517;51.932;4.278;2022-10-16T04:37:10;101032.38;;;15.47;64.76
37298;BME280;30517;51.932;4.278;2022-10-16T04:39:51;101035.03;;;15.47;64.42
37298;BME280;30517;51.932;4.278;2022-10-16T04:42:32;101012.50;;;15.20;64.52
37298;BME280;30517;51.932;4.278;2022-10-16T04:45:13;101039.69;;;15.35;64.86
37298;BME280;30517;51.932;4.278;2022-10-16T04:47:57;101057.19;;;15.46;64.61
37298;BME280;30517;51.932;4.278;2022-10-16T04:50:38;101050.25;;;15.39;64.63
37298;BME280;30517;51.932;4.278;2022-10-16T04:53:19;101053.66;;;15.44;64.73
37298;BME280;30517;51.932;4.278;2022-10-16T04:56:00;101057.22;;;15.45;64.80
37298;BME280;30517;51.932;4.278;2022-10-16T04:58:40;101061.69;;;15.43;64.57
37298;BME280;30517;51.932;4.278;2022-10-16T05:01:21;101064.34;;;15.43;65.19
37298;BME280;30517;51.932;4.278;2022-10-16T05:04:02;101087.28;;;15.47;64.84
37298;BME280;30517;51.932;4.278;2022-10-16T05:06:43;101070.66;;;15.37;64.84
37298;BME280;30517;51.932;4.278;2022-10-16T05:09:24;101090.00;;;15.44;65.21
37298;BME280;30517;51.932;4.278;2022-10-16T05:12:04;101085.63;;;15.43;64.65
37298;BME280;30517;51.932;4.278;2022-10-16T05:14:45;101063.75;;;15.25;64.85
37298;BME280;30517;51.932;4.278;2022-10-16T05:17:26;101077.84;;;15.32;64.70
37298;BME280;30517;51.932;4.278;2022-10-16T05:20:07;101092.81;;;15.36;64.86
37298;BME280;30517;51.932;4.278;2022-10-16T05:22:48;101102.56;;;15.37;64.92
37298;BME280;30517;51.932;4.278;2022-10-16T05:25:29;101103.47;;;15.35;65.18
37298;BME280;30517;51.932;4.278;2022-10-16T05:28:09;101109.59;;;15.40;64.92
37298;BME280;30517;51.932;4.278;2022-10-16T05:30:50;101105.16;;;15.40;64.65
37298;BME280;30517;51.932;4.278;2022-10-16T05:33:31;101108.72;;;15.39;64.87
37298;BME280;30517;51.932;4.278;2022-10-16T05:36:12;101086.00;;;15.23;64.90
37298;BME280;30517;51.932;4.278;2022-10-16T05:38:53;101110.66;;;15.28;64.86
37298;BME280;30517;51.932;4.278;2022-10-16T05:41:34;101105.31;;;15.31;64.95
37298;BME280;30517;51.932;4.278;2022-10-16T05:44:14;101115.00;;;15.34;65.25
37298;BME280;30517;51.932;4.278;2022-10-16T05:46:55;101115.84;;;15.37;64.68
37298;BME280;30517;51.932;4.278;2022-10-16T05:49:36;100997.66;;;14.57;64.85
37298;BME280;30517;51.932;4.278;2022-10-16T05:52:17;101112.38;;;15.32;64.84
37298;BME280;30517;51.932;4.278;2022-10-16T05:54:58;101122.09;;;15.35;64.78
37298;BME280;30517;51.932;4.278;2022-10-16T05:57:38;101083.59;;;15.06;64.85
37298;BME280;30517;51.932;4.278;2022-10-16T06:00:19;101091.50;;;15.09;64.88
37298;BME280;30517;51.932;4.278;2022-10-16T06:03:00;101101.22;;;15.12;65.28
37298;BME280;30517;51.932;4.278;2022-10-16T06:05:40;101076.59;;;15.00;65.29
37298;BME280;30517;51.932;4.278;2022-10-16T06:08:23;101126.72;;;15.22;65.27
37298;BME280;30517;51.932;4.278;2022-10-16T06:11:06;101096.00;;;15.05;65.34
37298;BME280;30517;51.932;4.278;2022-10-16T06:13:54;101139.13;;;15.23;65.33
37298;BME280;30517;51.932;4.278;2022-10-16T06:16:37;101142.66;;;15.22;65.35
37298;BME280;30517;51.932;4.278;2022-10-16T06:19:17;101127.91;;;15.04;65.23
37298;BME280;30517;51.932;4.278;2022-10-16T06:21:58;101132.16;;;15.16;65.26
37298;BME280;30517;51.932;4.278;2022-10-16T06:24:40;101152.41;;;15.23;65.40
37298;BME280;30517;51.932;4.278;2022-10-16T06:27:20;101141.13;;;15.09;65.59
37298;BME280;30517;51.932;4.278;2022-10-16T06:30:01;101134.97;;;15.05;65.36
37298;BME280;30517;51.932;4.278;2022-10-16T06:32:43;101142.09;;;15.04;65.18
37298;BME280;30517;51.932;4.278;2022-10-16T06:35:24;101163.22;;;15.11;65.24
37298;BME280;30517;51.932;4.278;2022-10-16T06:38:05;101176.41;;;15.18;65.69
37298;BME280;30517;51.932;4.278;2022-10-16T06:40:46;101160.59;;;15.09;65.35
37298;BME280;30517;51.932;4.278;2022-10-16T06:43:29;101180.00;;;15.14;65.46
37298;BME280;30517;51.932;4.278;2022-10-16T06:46:14;101183.56;;;15.12;65.55
37298;BME280;30517;51.932;4.278;2022-10-16T06:48:55;101191.50;;;15.15;65.37
37298;BME280;30517;51.932;4.278;2022-10-16T06:51:36;101195.88;;;15.17;65.23
37298;BME280;30517;51.932;4.278;2022-10-16T06:54:20;101196.84;;;15.13;65.44
37298;BME280;30517;51.932;4.278;2022-10-16T06:57:01;101209.38;;;15.05;65.67
37298;BME280;30517;51.932;4.278;2022-10-16T06:59:42;101205.84;;;15.04;65.82
37298;BME280;30517;51.932;4.278;2022-10-16T07:02:23;101219.03;;;15.11;65.60
37298;BME280;30517;51.932;4.278;2022-10-16T07:05:04;101240.38;;;15.03;65.63
37298;BME280;30517;51.932;4.278;2022-10-16T07:07:44;101204.28;;;14.90;65.74
37298;BME280;30517;51.932;4.278;2022-10-16T07:10:25;101222.75;;;14.97;65.96
37298;BME280;30517;51.932;4.278;2022-10-16T07:13:06;101236.75;;;15.09;65.73
37298;BME280;30517;51.932;4.278;2022-10-16T07:15:47;101242.13;;;15.07;65.21
37298;BME280;30517;51.932;4.278;2022-10-16T07:18:28;101250.09;;;15.05;65.43
37298;BME280;30517;51.932;4.278;2022-10-16T07:21:14;101254.47;;;15.10;65.55
37298;BME280;30517;51.932;4.278;2022-10-16T07:23:59;101254.44;;;15.11;65.62
37298;BME280;30517;51.932;4.278;2022-10-16T07:26:42;101255.50;;;14.98;65.50
37298;BME280;30517;51.932;4.278;2022-10-16T07:29:23;101270.44;;;15.07;65.61
37298;BME280;30517;51.932;4.278;2022-10-16T07:32:04;101248.56;;;14.89;65.45
37298;BME280;30517;51.932;4.278;2022-10-16T07:34:45;101268.88;;;14.92;65.59
37298;BME280;30517;51.932;4.278;2022-10-16T07:37:26;101275.97;;;14.91;65.34
37298;BME280;30517;51.932;4.278;2022-10-16T07:40:07;101246.94;;;14.77;65.51
37298;BME280;30517;51.932;4.278;2022-10-16T07:42:48;101295.41;;;14.96;65.74
37298;BME280;30517;51.932;4.278;2022-10-16T07:45:29;101297.09;;;15.00;65.83
37298;BME280;30517;51.932;4.278;2022-10-16T07:48:10;101292.59;;;15.04;65.63
37298;BME280;30517;51.932;4.278;2022-10-16T07:50:51;101262.97;;;14.70;65.79
37298;BME280;30517;51.932;4.278;2022-10-16T07:53:33;101298.97;;;14.94;65.89
37298;BME280;30517;51.932;4.278;2022-10-16T07:56:14;101317.47;;;15.01;65.48
37298;BME280;30517;51.932;4.278;2022-10-16T07:58:55;101307.84;;;14.90;65.56
37298;BME280;30517;51.932;4.278;2022-10-16T08:01:36;101313.06;;;14.97;65.42
37298;BME280;30517;51.932;4.278;2022-10-16T08:04:17;101334.22;;;15.05;65.08
37298;BME280;30517;51.932;4.278;2022-10-16T08:06:58;101338.63;;;15.06;65.33
37298;BME280;30517;51.932;4.278;2022-10-16T08:09:39;101342.16;;;15.08;65.03
37298;BME280;30517;51.932;4.278;2022-10-16T08:12:20;101325.50;;;14.97;65.02
37298;BME280;30517;51.932;4.278;2022-10-16T08:15:00;101348.34;;;15.09;65.29
37298;BME280;30517;51.932;4.278;2022-10-16T08:17:41;101347.53;;;15.03;65.32
37298;BME280;30517;51.932;4.278;2022-10-16T08:20:22;101352.00;;;14.98;65.89
37298;BME280;30517;51.932;4.278;2022-10-16T08:23:03;101359.97;;;15.01;65.22
37298;BME280;30517;51.932;4.278;2022-10-16T08:25:44;101357.38;;;14.95;65.59
37298;BME280;30517;51.932;4.278;2022-10-16T08:28:25;101367.84;;;15.08;65.36
37298;BME280;30517;51.932;4.278;2022-10-16T08:31:14;101377.63;;;15.05;65.34
37298;BME280;30517;51.932;4.278;2022-10-16T08:33:55;101381.16;;;15.06;65.07
37298;BME280;30517;51.932;4.278;2022-10-16T08:36:36;101395.25;;;15.11;65.06
37298;BME280;30517;51.932;4.278;2022-10-16T08:39:17;101398.75;;;15.15;64.85
37298;BME280;30517;51.932;4.278;2022-10-16T08:42:11;101396.22;;;15.05;64.95
37298;BME280;30517;51.932;4.278;2022-10-16T08:51:08;101389.19;;;14.98;64.99
37298;BME280;30517;51.932;4.278;2022-10-16T08:53:59;101373.38;;;14.89;65.02
37298;BME280;30517;51.932;4.278;2022-10-16T08:56:42;101381.41;;;14.86;65.33
37298;BME280;30517;51.932;4.278;2022-10-16T08:59:23;101404.28;;;14.98;65.16
37298;BME280;30517;51.932;4.278;2022-10-16T09:02:19;101403.34;;;15.00;65.28
37298;BME280;30517;51.932;4.278;2022-10-16T09:05:09;101419.22;;;15.10;65.31
37298;BME280;30517;51.932;4.278;2022-10-16T09:08:09;101415.69;;;15.06;65.25
37298;BME280;30517;51.932;4.278;2022-10-16T09:10:57;101418.41;;;15.00;65.59
37298;BME280;30517;51.932;4.278;2022-10-16T09:13:43;101427.25;;;15.02;65.45
37298;BME280;30517;51.932;4.278;2022-10-16T09:16:36;101430.72;;;15.09;65.06
37298;BME280;30517;51.932;4.278;2022-10-16T09:19:28;101422.03;;;14.93;65.28
37298;BME280;30517;51.932;4.278;2022-10-16T09:22:15;101425.44;;;15.04;65.59
37298;BME280;30517;51.932;4.278;2022-10-16T09:25:00;101432.47;;;15.11;65.19
37298;BME280;30517;51.932;4.278;2022-10-16T09:27:44;101422.81;;;15.01;65.17
37298;BME280;30517;51.932;4.278;2022-10-16T09:30:28;101370.13;;;14.64;65.70
37298;BME280;30517;51.932;4.278;2022-10-16T09:33:11;101433.44;;;15.02;65.62
37298;BME280;30517;51.932;4.278;2022-10-16T09:35:54;101445.91;;;14.99;65.87
37298;BME280;30517;51.932;4.278;2022-10-16T09:38:36;101446.69;;;15.07;65.38
37298;BME280;30517;51.932;4.278;2022-10-16T09:41:20;101441.34;;;15.10;65.36
37298;BME280;30517;51.932;4.278;2022-10-16T09:44:02;101457.31;;;15.07;65.32
37298;BME280;30517;51.932;4.278;2022-10-16T09:46:44;101401.84;;;14.78;65.14
37298;BME280;30517;51.932;4.278;2022-10-16T09:49:26;101449.31;;;15.09;65.30
37298;BME280;30517;51.932;4.278;2022-10-16T09:52:15;101467.03;;;15.07;65.14
37298;BME280;30517;51.932;4.278;2022-10-16T09:54:57;101451.94;;;15.12;65.28
37298;BME280;30517;51.932;4.278;2022-10-16T09:57:51;101428.22;;;14.95;65.11
37298;BME280;30517;51.932;4.278;2022-10-16T10:00:32;101444.06;;;15.02;64.97
37298;BME280;30517;51.932;4.278;2022-10-16T10:03:13;101439.63;;;15.04;64.96
37298;BME280;30517;51.932;4.278;2022-10-16T10:09:04;101439.59;;;15.06;64.91
37298;BME280;30517;51.932;4.278;2022-10-16T10:11:55;101441.38;;;15.04;65.00
37298;BME280;30517;51.932;4.278;2022-10-16T10:14:38;101478.50;;;15.13;65.25
37298;BME280;30517;51.932;4.278;2022-10-16T10:17:23;101426.50;;;14.89;64.97
37298;BME280;30517;51.932;4.278;2022-10-16T10:20:29;101490.84;;;15.17;64.94
37298;BME280;30517;51.932;4.278;2022-10-16T10:23:22;101481.06;;;15.19;65.01
37298;BME280;30517;51.932;4.278;2022-10-16T10:26:11;101468.66;;;15.23;64.70
37298;BME280;30517;51.932;4.278;2022-10-16T10:29:13;101470.41;;;15.24;64.61
37298;BME280;30517;51.932;4.278;2022-10-16T10:32:12;101481.91;;;15.24;64.49
37298;BME280;30517;51.932;4.278;2022-10-16T10:35:30;101491.66;;;15.24;64.58
37298;BME280;30517;51.932;4.278;2022-10-16T10:38:38;101488.97;;;15.25;64.75
37298;BME280;30517;51.932;4.278;2022-10-16T10:44:19;101491.63;;;15.27;64.98
37298;BME280;30517;51.932;4.278;2022-10-16T10:50:25;101490.75;;;15.25;65.90
37298;BME280;30517;51.932;4.278;2022-10-16T10:59:32;101504.84;;;15.33;65.44
37298;BME280;30517;51.932;4.278;2022-10-16T11:08:18;101521.63;;;15.38;64.93
37298;BME280;30517;51.932;4.278;2022-10-16T11:11:05;101483.81;;;15.12;65.02
37298;BME280;30517;51.932;4.278;2022-10-16T11:14:00;101519.91;;;15.34;65.41
37298;BME280;30517;51.932;4.278;2022-10-16T11:19:54;101541.13;;;15.37;65.15
37298;BME280;30517;51.932;4.278;2022-10-16T11:22:41;101541.94;;;15.45;65.22
37298;BME280;30517;51.932;4.278;2022-10-16T11:25:28;101540.09;;;15.51;64.92
37298;BME280;30517;51.932;4.278;2022-10-16T11:31:46;101541.81;;;15.55;64.54
37298;BME280;30517;51.932;4.278;2022-10-16T11:34:38;101511.84;;;15.40;64.42
37298;BME280;30517;51.932;4.278;2022-10-16T11:37:28;101546.25;;;15.56;64.45
37298;BME280;30517;51.932;4.278;2022-10-16T11:43:22;101548.03;;;15.54;64.63
37298;BME280;30517;51.932;4.278;2022-10-16T11:46:13;101555.97;;;15.55;64.84
37298;BME280;30517;51.932;4.278;2022-10-16T11:49:04;101556.03;;;15.52;64.66
37298;BME280;30517;51.932;4.278;2022-10-16T11:52:14;101558.63;;;15.57;64.68
37298;BME280;30517;51.932;4.278;2022-10-16T11:55:19;101539.34;;;15.38;64.42
37298;BME280;30517;51.932;4.278;2022-10-16T11:58:07;101541.88;;;15.48;64.21
37298;BME280;30517;51.932;4.278;2022-10-16T12:06:59;101563.00;;;15.62;64.64
37298;BME280;30517;51.932;4.278;2022-10-16T12:09:42;101546.25;;;15.54;64.42
37298;BME280;30517;51.932;4.278;2022-10-16T12:12:37;101569.19;;;15.63;64.55
37298;BME280;30517;51.932;4.278;2022-10-16T12:15:30;101555.97;;;15.58;64.73
37298;BME280;30517;51.932;4.278;2022-10-16T12:18:24;101578.91;;;15.67;64.47
37298;BME280;30517;51.932;4.278;2022-10-16T12:21:05;101557.72;;;15.58;64.52
37298;BME280;30517;51.932;4.278;2022-10-16T12:23:58;101565.69;;;15.58;64.55
37298;BME280;30517;51.932;4.278;2022-10-16T12:26:44;101584.22;;;15.68;64.51
37298;BME280;30517;51.932;4.278;2022-10-16T12:29:36;101573.59;;;15.70;64.70
37298;BME280;30517;51.932;4.278;2022-10-16T12:32:34;101575.38;;;15.69;64.58
37298;BME280;30517;51.932;4.278;2022-10-16T12:35:22;101557.69;;;15.62;64.30
37298;BME280;30517;51.932;4.278;2022-10-16T12:38:12;101577.03;;;15.77;64.55
37298;BME280;30517;51.932;4.278;2022-10-16T12:40:58;101567.31;;;15.77;64.41
37298;BME280;30517;51.932;4.278;2022-10-16T12:43:45;101577.94;;;15.77;64.62
37298;BME280;30517;51.932;4.278;2022-10-16T12:51:53;101577.00;;;15.81;62.31
37298;BME280;30517;51.932;4.278;2022-10-16T12:54:36;101581.56;;;15.70;62.20
37298;BME280;30517;51.932;4.278;2022-10-16T13:00:32;101594.75;;;15.81;62.88
37298;BME280;30517;51.932;4.278;2022-10-16T13:03:50;101596.56;;;15.77;63.31
37298;BME280;30517;51.932;4.278;2022-10-16T13:09:45;101616.81;;;15.89;63.09
37298;BME280;30517;51.932;4.278;2022-10-16T13:16:06;101605.16;;;15.98;61.92
37298;BME280;30517;51.932;4.278;2022-10-16T13:25:22;101606.81;;;16.06;62.37
37298;BME280;30517;51.932;4.278;2022-10-16T13:27:59;101582.13;;;15.97;62.66
37298;BME280;30517;51.932;4.278;2022-10-16T13:30:43;101586.59;;;15.95;62.45
37298;BME280;30517;51.932;4.278;2022-10-16T13:36:06;101604.34;;;15.92;62.42
37298;BME280;30517;51.932;4.278;2022-10-16T13:38:47;101620.25;;;15.96;63.01
37298;BME280;30517;51.932;4.278;2022-10-16T13:41:28;101600.63;;;16.06;62.65
37298;BME280;30517;51.932;4.278;2022-10-16T13:44:19;101595.38;;;16.00;62.92
37298;BME280;30517;51.932;4.278;2022-10-16T13:47:01;101609.44;;;16.11;63.09
37298;BME280;30517;51.932;4.278;2022-10-16T13:49:43;101607.59;;;16.16;63.22
37298;BME280;30517;51.932;4.278;2022-10-16T13:52:23;101597.72;;;16.23;63.12
37298;BME280;30517;51.932;4.278;2022-10-16T13:55:16;101594.19;;;16.24;63.06
37298;BME280;30517;51.932;4.278;2022-10-16T13:58:14;101597.63;;;16.32;63.06
37298;BME280;30517;51.932;4.278;2022-10-16T14:01:00;101596.69;;;16.34;62.88
37298;BME280;30517;51.932;4.278;2022-10-16T14:03:42;101602.84;;;16.38;62.93
37298;BME280;30517;51.932;4.278;2022-10-16T14:06:24;101593.16;;;16.32;63.00
37298;BME280;30517;51.932;4.278;2022-10-16T14:09:19;101594.84;;;16.40;62.69
37298;BME280;30517;51.932;4.278;2022-10-16T14:12:07;101592.31;;;16.30;62.99
37298;BME280;30517;51.932;4.278;2022-10-16T14:14:51;101580.81;;;16.28;62.46
37298;BME280;30517;51.932;4.278;2022-10-16T14:17:35;101594.84;;;16.40;62.96
37298;BME280;30517;51.932;4.278;2022-10-16T14:20:16;101603.66;;;16.45;63.03
37298;BME280;30517;51.932;4.278;2022-10-16T14:23:03;101609.00;;;16.45;62.84
37298;BME280;30517;51.932;4.278;2022-10-16T14:25:45;101599.22;;;16.45;62.97
37298;BME280;30517;51.932;4.278;2022-10-16T14:28:26;101603.63;;;16.46;62.92
37298;BME280;30517;51.932;4.278;2022-10-16T14:34:00;101585.84;;;16.48;63.11
37298;BME280;30517;51.932;4.278;2022-10-16T14:36:41;101585.81;;;16.50;62.78
37298;BME280;30517;51.932;4.278;2022-10-16T14:39:23;101575.34;;;16.39;62.99
37298;BME280;30517;51.932;4.278;2022-10-16T14:42:14;101595.63;;;16.48;63.09
37298;BME280;30517;51.932;4.278;2022-10-16T14:44:57;101601.75;;;16.53;63.07
37298;BME280;30517;51.932;4.278;2022-10-16T14:47:48;101597.25;;;16.56;63.10
37298;BME280;30517;51.932;4.278;2022-10-16T14:50:30;101588.41;;;16.54;63.44
37298;BME280;30517;51.932;4.278;2022-10-16T14:53:11;101565.56;;;16.38;63.19
37298;BME280;30517;51.932;4.278;2022-10-16T14:55:53;101594.59;;;16.56;63.31
37298;BME280;30517;51.932;4.278;2022-10-16T14:58:34;101595.47;;;16.57;63.42
37298;BME280;30517;51.932;4.278;2022-10-16T15:01:15;101585.78;;;16.51;62.97
37298;BME280;30517;51.932;4.278;2022-10-16T15:03:56;101599.00;;;16.59;63.26
37298;BME280;30517;51.932;4.278;2022-10-16T15:06:37;101594.53;;;16.61;63.41
37298;BME280;30517;51.932;4.278;2022-10-16T15:09:17;101563.66;;;16.48;63.27
37298;BME280;30517;51.932;4.278;2022-10-16T15:11:58;101593.63;;;16.64;63.10
37298;BME280;30517;51.932;4.278;2022-10-16T15:14:39;101577.66;;;16.60;62.99
37298;BME280;30517;51.932;4.278;2022-10-16T15:17:20;101577.75;;;16.56;63.04
37298;BME280;30517;51.932;4.278;2022-10-16T15:20:01;101590.13;;;16.58;63.34
37298;BME280;30517;51.932;4.278;2022-10-16T15:22:41;101559.22;;;16.47;62.88
37298;BME280;30517;51.932;4.278;2022-10-16T15:25:38;101578.47;;;16.66;63.08
37298;BME280;30517;51.932;4.278;2022-10-16T15:28:23;101575.03;;;16.59;62.97
37298;BME280;30517;51.932;4.278;2022-10-16T15:31:04;101591.72;;;16.69;63.12